sensor_id;sensor_type;location;lat;lon;timestamp;temperature;humidity
16074;DHT22;8141;52.664;5.074;2023-04-24T00:00:16;21.10;54.30
16074;DHT22;8141;52.664;5.074;2023-04-24T00:02:44;21.10;54.30
16074;DHT22;8141;52.664;5.074;2023-04-24T00:05:15;21.10;54.40
16074;DHT22;8141;52.664;5.074;2023-04-24T00:07:41;21.10;54.50
16074;DHT22;8141;52.664;5.074;2023-04-24T00:10:08;21.00;54.40
16074;DHT22;8141;52.664;5.074;2023-04-24T00:12:34;21.10;54.30
16074;DHT22;8141;52.664;5.074;2023-04-24T00:15:01;21.10;54.30
16074;DHT22;8141;52.664;5.074;2023-04-24T00:17:27;21.10;54.30
16074;DHT22;8141;52.664;5.074;2023-04-24T00:19:52;21.10;54.50
16074;DHT22;8141;52.664;5.074;2023-04-24T00:22:27;21.10;54.40
16074;DHT22;8141;52.664;5.074;2023-04-24T00:24:54;21.10;54.40
16074;DHT22;8141;52.664;5.074;2023-04-24T00:27:20;21.10;54.40
16074;DHT22;8141;52.664;5.074;2023-04-24T00:29:46;21.10;54.40
16074;DHT22;8141;52.664;5.074;2023-04-24T00:32:12;21.00;54.40
16074;DHT22;8141;52.664;5.074;2023-04-24T00:34:38;21.10;54.40
16074;DHT22;8141;52.664;5.074;2023-04-24T00:37:04;21.00;54.40
16074;DHT22;8141;52.664;5.074;2023-04-24T00:39:30;21.00;54.30
16074;DHT22;8141;52.664;5.074;2023-04-24T00:41:56;21.00;54.40
16074;DHT22;8141;52.664;5.074;2023-04-24T00:44:23;21.00;54.50
16074;DHT22;8141;52.664;5.074;2023-04-24T00:46:49;21.00;55.10
16074;DHT22;8141;52.664;5.074;2023-04-24T00:49:20;21.00;54.50
16074;DHT22;8141;52.664;5.074;2023-04-24T00:51:46;21.00;54.50
16074;DHT22;8141;52.664;5.074;2023-04-24T00:54:15;21.00;54.40
16074;DHT22;8141;52.664;5.074;2023-04-24T00:56:42;21.00;54.50
16074;DHT22;8141;52.664;5.074;2023-04-24T00:59:10;21.00;54.50
16074;DHT22;8141;52.664;5.074;2023-04-24T01:01:37;21.00;54.60
16074;DHT22;8141;52.664;5.074;2023-04-24T01:04:07;21.00;54.50
16074;DHT22;8141;52.664;5.074;2023-04-24T01:06:34;21.00;54.70
16074;DHT22;8141;52.664;5.074;2023-04-24T01:09:00;21.00;54.70
16074;DHT22;8141;52.664;5.074;2023-04-24T01:11:26;21.00;54.70
16074;DHT22;8141;52.664;5.074;2023-04-24T01:13:52;21.00;54.80
16074;DHT22;8141;52.664;5.074;2023-04-24T01:16:19;21.00;54.90
16074;DHT22;8141;52.664;5.074;2023-04-24T01:18:46;21.00;55.00
16074;DHT22;8141;52.664;5.074;2023-04-24T01:21:14;21.00;54.80
16074;DHT22;8141;52.664;5.074;2023-04-24T01:23:44;21.00;55.00
16074;DHT22;8141;52.664;5.074;2023-04-24T01:26:12;21.00;54.90
16074;DHT22;8141;52.664;5.074;2023-04-24T01:28:41;21.00;55.70
16074;DHT22;8141;52.664;5.074;2023-04-24T01:31:07;21.00;55.20
16074;DHT22;8141;52.664;5.074;2023-04-24T01:33:33;21.00;55.10
16074;DHT22;8141;52.664;5.074;2023-04-24T01:35:58;21.00;55.20
16074;DHT22;8141;52.664;5.074;2023-04-24T01:38:25;21.00;55.20
16074;DHT22;8141;52.664;5.074;2023-04-24T01:40:51;21.00;55.20
16074;DHT22;8141;52.664;5.074;2023-04-24T01:43:17;21.00;55.20
16074;DHT22;8141;52.664;5.074;2023-04-24T01:45:43;21.00;55.20
16074;DHT22;8141;52.664;5.074;2023-04-24T01:48:09;21.00;55.20
16074;DHT22;8141;52.664;5.074;2023-04-24T01:50:35;21.00;55.30
16074;DHT22;8141;52.664;5.074;2023-04-24T01:53:01;21.00;55.20
16074;DHT22;8141;52.664;5.074;2023-04-24T01:55:27;21.00;55.20
16074;DHT22;8141;52.664;5.074;2023-04-24T01:57:55;20.90;55.00
16074;DHT22;8141;52.664;5.074;2023-04-24T02:00:21;21.00;55.10
16074;DHT22;8141;52.664;5.074;2023-04-24T02:02:47;21.00;55.10
16074;DHT22;8141;52.664;5.074;2023-04-24T02:05:13;21.00;55.10
16074;DHT22;8141;52.664;5.074;2023-04-24T02:07:38;21.00;55.30
16074;DHT22;8141;52.664;5.074;2023-04-24T02:10:05;21.00;55.20
16074;DHT22;8141;52.664;5.074;2023-04-24T02:12:31;21.00;55.10
16074;DHT22;8141;52.664;5.074;2023-04-24T02:14:57;20.90;55.10
16074;DHT22;8141;52.664;5.074;2023-04-24T02:17:23;21.00;55.10
16074;DHT22;8141;52.664;5.074;2023-04-24T02:19:48;20.90;55.20
16074;DHT22;8141;52.664;5.074;2023-04-24T02:22:14;20.90;55.30
16074;DHT22;8141;52.664;5.074;2023-04-24T02:24:40;20.90;55.60
16074;DHT22;8141;52.664;5.074;2023-04-24T02:27:06;20.90;55.30
16074;DHT22;8141;52.664;5.074;2023-04-24T02:29:32;21.00;55.20
16074;DHT22;8141;52.664;5.074;2023-04-24T02:31:58;20.90;55.30
16074;DHT22;8141;52.664;5.074;2023-04-24T02:34:23;20.90;55.30
16074;DHT22;8141;52.664;5.074;2023-04-24T02:36:50;20.90;55.10
16074;DHT22;8141;52.664;5.074;2023-04-24T02:39:16;20.90;55.10
16074;DHT22;8141;52.664;5.074;2023-04-24T02:41:42;20.90;55.10
16074;DHT22;8141;52.664;5.074;2023-04-24T02:44:08;20.90;55.10
16074;DHT22;8141;52.664;5.074;2023-04-24T02:46:35;20.90;55.10
16074;DHT22;8141;52.664;5.074;2023-04-24T02:49:00;20.90;55.10
16074;DHT22;8141;52.664;5.074;2023-04-24T02:51:26;20.90;55.10
16074;DHT22;8141;52.664;5.074;2023-04-24T02:53:52;20.90;55.20
16074;DHT22;8141;52.664;5.074;2023-04-24T02:56:18;20.90;55.10
16074;DHT22;8141;52.664;5.074;2023-04-24T02:58:44;20.90;55.60
16074;DHT22;8141;52.664;5.074;2023-04-24T03:01:10;20.90;55.50
16074;DHT22;8141;52.664;5.074;2023-04-24T03:03:37;20.90;55.60
16074;DHT22;8141;52.664;5.074;2023-04-24T03:06:03;20.90;55.60
16074;DHT22;8141;52.664;5.074;2023-04-24T03:08:34;20.90;55.70
16074;DHT22;8141;52.664;5.074;2023-04-24T03:11:00;20.90;55.80
16074;DHT22;8141;52.664;5.074;2023-04-24T03:13:26;20.90;55.80
16074;DHT22;8141;52.664;5.074;2023-04-24T03:15:52;20.90;55.90
16074;DHT22;8141;52.664;5.074;2023-04-24T03:18:18;20.90;55.80
16074;DHT22;8141;52.664;5.074;2023-04-24T03:20:45;20.90;55.80
16074;DHT22;8141;52.664;5.074;2023-04-24T03:23:12;20.90;55.70
16074;DHT22;8141;52.664;5.074;2023-04-24T03:25:37;20.90;56.00
16074;DHT22;8141;52.664;5.074;2023-04-24T03:28:04;20.90;55.90
16074;DHT22;8141;52.664;5.074;2023-04-24T03:30:30;20.90;55.90
16074;DHT22;8141;52.664;5.074;2023-04-24T03:32:55;20.90;55.60
16074;DHT22;8141;52.664;5.074;2023-04-24T03:35:21;20.90;55.40
16074;DHT22;8141;52.664;5.074;2023-04-24T03:37:47;20.90;55.50
16074;DHT22;8141;52.664;5.074;2023-04-24T03:40:13;20.90;55.40
16074;DHT22;8141;52.664;5.074;2023-04-24T03:42:38;20.90;55.50
16074;DHT22;8141;52.664;5.074;2023-04-24T03:45:05;20.90;55.50
16074;DHT22;8141;52.664;5.074;2023-04-24T03:47:31;20.90;55.60
16074;DHT22;8141;52.664;5.074;2023-04-24T03:49:57;20.90;55.50
16074;DHT22;8141;52.664;5.074;2023-04-24T03:52:23;20.90;55.70
16074;DHT22;8141;52.664;5.074;2023-04-24T03:54:49;20.90;56.10
16074;DHT22;8141;52.664;5.074;2023-04-24T03:57:14;20.90;55.80
16074;DHT22;8141;52.664;5.074;2023-04-24T03:59:40;20.90;56.20
16074;DHT22;8141;52.664;5.074;2023-04-24T04:02:06;20.90;56.10
16074;DHT22;8141;52.664;5.074;2023-04-24T04:04:32;20.90;56.00
16074;DHT22;8141;52.664;5.074;2023-04-24T04:06:58;20.90;56.10
16074;DHT22;8141;52.664;5.074;2023-04-24T04:09:26;20.90;55.90
16074;DHT22;8141;52.664;5.074;2023-04-24T04:11:52;20.90;56.10
16074;DHT22;8141;52.664;5.074;2023-04-24T04:14:18;20.90;56.10
16074;DHT22;8141;52.664;5.074;2023-04-24T04:16:44;20.90;56.20
16074;DHT22;8141;52.664;5.074;2023-04-24T04:19:10;20.90;56.10
16074;DHT22;8141;52.664;5.074;2023-04-24T04:21:36;20.90;56.20
16074;DHT22;8141;52.664;5.074;2023-04-24T04:24:02;20.90;56.30
16074;DHT22;8141;52.664;5.074;2023-04-24T04:26:27;20.90;56.20
16074;DHT22;8141;52.664;5.074;2023-04-24T04:28:53;20.90;56.30
16074;DHT22;8141;52.664;5.074;2023-04-24T04:31:22;20.90;56.10
16074;DHT22;8141;52.664;5.074;2023-04-24T04:33:48;20.90;56.20
16074;DHT22;8141;52.664;5.074;2023-04-24T04:36:14;20.90;56.20
16074;DHT22;8141;52.664;5.074;2023-04-24T04:38:40;20.90;56.10
16074;DHT22;8141;52.664;5.074;2023-04-24T04:41:06;20.90;56.40
16074;DHT22;8141;52.664;5.074;2023-04-24T04:43:32;20.90;56.30
16074;DHT22;8141;52.664;5.074;2023-04-24T04:45:59;20.90;56.20
16074;DHT22;8141;52.664;5.074;2023-04-24T04:48:26;20.90;56.30
16074;DHT22;8141;52.664;5.074;2023-04-24T04:50:52;20.90;56.30
16074;DHT22;8141;52.664;5.074;2023-04-24T04:53:18;20.90;56.20
16074;DHT22;8141;52.664;5.074;2023-04-24T04:55:44;20.90;56.10
16074;DHT22;8141;52.664;5.074;2023-04-24T04:58:10;20.90;56.10
16074;DHT22;8141;52.664;5.074;2023-04-24T05:00:35;20.90;55.90
16074;DHT22;8141;52.664;5.074;2023-04-24T05:03:02;20.90;55.90
16074;DHT22;8141;52.664;5.074;2023-04-24T05:05:29;20.90;55.80
16074;DHT22;8141;52.664;5.074;2023-04-24T05:07:55;20.90;55.80
16074;DHT22;8141;52.664;5.074;2023-04-24T05:10:21;20.90;55.90
16074;DHT22;8141;52.664;5.074;2023-04-24T05:12:46;20.90;55.80
16074;DHT22;8141;52.664;5.074;2023-04-24T05:15:12;20.80;55.70
16074;DHT22;8141;52.664;5.074;2023-04-24T05:17:38;20.90;55.90
16074;DHT22;8141;52.664;5.074;2023-04-24T05:20:05;20.80;55.70
16074;DHT22;8141;52.664;5.074;2023-04-24T05:22:35;20.90;55.70
16074;DHT22;8141;52.664;5.074;2023-04-24T05:25:01;20.80;55.60
16074;DHT22;8141;52.664;5.074;2023-04-24T05:27:27;20.80;55.60
16074;DHT22;8141;52.664;5.074;2023-04-24T05:29:54;20.80;55.60
16074;DHT22;8141;52.664;5.074;2023-04-24T05:32:20;20.80;55.70
16074;DHT22;8141;52.664;5.074;2023-04-24T05:34:45;20.80;55.60
16074;DHT22;8141;52.664;5.074;2023-04-24T05:37:11;20.80;55.50
16074;DHT22;8141;52.664;5.074;2023-04-24T05:39:37;20.80;55.60
16074;DHT22;8141;52.664;5.074;2023-04-24T05:42:03;20.80;55.50
16074;DHT22;8141;52.664;5.074;2023-04-24T05:44:30;20.80;55.60
16074;DHT22;8141;52.664;5.074;2023-04-24T05:46:56;20.80;55.60
16074;DHT22;8141;52.664;5.074;2023-04-24T05:49:22;20.80;55.60
16074;DHT22;8141;52.664;5.074;2023-04-24T05:51:48;20.80;55.50
16074;DHT22;8141;52.664;5.074;2023-04-24T05:54:13;20.80;55.60
16074;DHT22;8141;52.664;5.074;2023-04-24T05:56:40;20.80;55.50
16074;DHT22;8141;52.664;5.074;2023-04-24T05:59:06;20.80;55.50
16074;DHT22;8141;52.664;5.074;2023-04-24T06:01:31;20.80;55.40
16074;DHT22;8141;52.664;5.074;2023-04-24T06:03:57;20.80;55.30
16074;DHT22;8141;52.664;5.074;2023-04-24T06:06:24;20.80;55.50
16074;DHT22;8141;52.664;5.074;2023-04-24T06:08:49;20.80;55.40
16074;DHT22;8141;52.664;5.074;2023-04-24T06:11:15;20.80;55.50
16074;DHT22;8141;52.664;5.074;2023-04-24T06:13:41;20.80;55.40
16074;DHT22;8141;52.664;5.074;2023-04-24T06:16:07;20.80;55.40
16074;DHT22;8141;52.664;5.074;2023-04-24T06:18:33;20.70;55.50
16074;DHT22;8141;52.664;5.074;2023-04-24T06:20:59;20.70;55.40
16074;DHT22;8141;52.664;5.074;2023-04-24T06:23:24;20.80;55.50
16074;DHT22;8141;52.664;5.074;2023-04-24T06:25:51;20.80;55.40
16074;DHT22;8141;52.664;5.074;2023-04-24T06:28:16;20.70;55.40
16074;DHT22;8141;52.664;5.074;2023-04-24T06:30:42;20.70;55.30
16074;DHT22;8141;52.664;5.074;2023-04-24T06:33:08;20.80;55.70
16074;DHT22;8141;52.664;5.074;2023-04-24T06:35:36;20.70;55.30
16074;DHT22;8141;52.664;5.074;2023-04-24T06:38:03;20.70;55.40
16074;DHT22;8141;52.664;5.074;2023-04-24T06:40:28;20.80;55.40
16074;DHT22;8141;52.664;5.074;2023-04-24T06:42:55;20.70;55.50
16074;DHT22;8141;52.664;5.074;2023-04-24T06:45:20;20.70;55.60
16074;DHT22;8141;52.664;5.074;2023-04-24T06:47:46;20.70;55.40
16074;DHT22;8141;52.664;5.074;2023-04-24T06:50:12;20.70;55.40
16074;DHT22;8141;52.664;5.074;2023-04-24T06:52:38;20.70;56.00
16074;DHT22;8141;52.664;5.074;2023-04-24T06:55:04;20.70;55.40
16074;DHT22;8141;52.664;5.074;2023-04-24T06:57:30;20.70;55.30
16074;DHT22;8141;52.664;5.074;2023-04-24T06:59:56;20.70;55.50
16074;DHT22;8141;52.664;5.074;2023-04-24T07:02:22;20.70;55.30
16074;DHT22;8141;52.664;5.074;2023-04-24T07:04:48;20.70;55.40
16074;DHT22;8141;52.664;5.074;2023-04-24T07:07:14;20.70;55.40
16074;DHT22;8141;52.664;5.074;2023-04-24T07:09:40;20.70;55.40
16074;DHT22;8141;52.664;5.074;2023-04-24T07:12:09;20.70;55.40
16074;DHT22;8141;52.664;5.074;2023-04-24T07:14:39;20.70;55.50
16074;DHT22;8141;52.664;5.074;2023-04-24T07:17:05;20.70;55.40
16074;DHT22;8141;52.664;5.074;2023-04-24T07:19:32;20.70;55.60
16074;DHT22;8141;52.664;5.074;2023-04-24T07:21:58;20.70;55.40
16074;DHT22;8141;52.664;5.074;2023-04-24T07:24:25;20.70;55.50
16074;DHT22;8141;52.664;5.074;2023-04-24T07:26:51;20.70;55.40
16074;DHT22;8141;52.664;5.074;2023-04-24T07:29:18;20.70;55.40
16074;DHT22;8141;52.664;5.074;2023-04-24T07:31:44;20.70;55.50
16074;DHT22;8141;52.664;5.074;2023-04-24T07:34:10;20.70;55.40
16074;DHT22;8141;52.664;5.074;2023-04-24T07:36:36;20.70;55.40
16074;DHT22;8141;52.664;5.074;2023-04-24T07:39:04;20.70;55.40
16074;DHT22;8141;52.664;5.074;2023-04-24T07:41:30;20.70;55.40
16074;DHT22;8141;52.664;5.074;2023-04-24T07:43:56;20.70;55.50
16074;DHT22;8141;52.664;5.074;2023-04-24T07:46:21;20.70;55.50
16074;DHT22;8141;52.664;5.074;2023-04-24T07:48:48;20.70;55.40
16074;DHT22;8141;52.664;5.074;2023-04-24T07:51:15;20.70;55.50
16074;DHT22;8141;52.664;5.074;2023-04-24T07:53:41;20.70;55.50
16074;DHT22;8141;52.664;5.074;2023-04-24T07:56:08;20.70;55.60
16074;DHT22;8141;52.664;5.074;2023-04-24T07:58:34;20.70;55.60
16074;DHT22;8141;52.664;5.074;2023-04-24T08:01:00;20.70;55.60
16074;DHT22;8141;52.664;5.074;2023-04-24T08:03:26;20.70;55.60
16074;DHT22;8141;52.664;5.074;2023-04-24T08:05:51;20.70;55.80
16074;DHT22;8141;52.664;5.074;2023-04-24T08:08:19;20.60;55.80
16074;DHT22;8141;52.664;5.074;2023-04-24T08:10:46;20.70;55.80
16074;DHT22;8141;52.664;5.074;2023-04-24T08:13:12;20.70;55.70
16074;DHT22;8141;52.664;5.074;2023-04-24T08:15:37;20.70;55.70
16074;DHT22;8141;52.664;5.074;2023-04-24T08:18:03;20.60;55.80
16074;DHT22;8141;52.664;5.074;2023-04-24T08:20:29;20.70;55.60
16074;DHT22;8141;52.664;5.074;2023-04-24T08:22:55;20.60;56.20
16074;DHT22;8141;52.664;5.074;2023-04-24T08:25:22;20.70;55.80
16074;DHT22;8141;52.664;5.074;2023-04-24T08:27:49;20.70;55.80
16074;DHT22;8141;52.664;5.074;2023-04-24T08:30:14;20.60;55.50
16074;DHT22;8141;52.664;5.074;2023-04-24T08:32:40;20.60;55.70
16074;DHT22;8141;52.664;5.074;2023-04-24T08:35:07;20.70;55.50
16074;DHT22;8141;52.664;5.074;2023-04-24T08:37:36;20.70;55.50
16074;DHT22;8141;52.664;5.074;2023-04-24T08:40:15;20.60;55.40
16074;DHT22;8141;52.664;5.074;2023-04-24T08:42:43;20.60;55.50
16074;DHT22;8141;52.664;5.074;2023-04-24T08:45:10;20.60;55.50
16074;DHT22;8141;52.664;5.074;2023-04-24T08:47:39;20.70;55.60
16074;DHT22;8141;52.664;5.074;2023-04-24T08:50:07;20.60;55.60
16074;DHT22;8141;52.664;5.074;2023-04-24T08:52:34;20.60;55.60
16074;DHT22;8141;52.664;5.074;2023-04-24T08:55:00;20.60;55.60
16074;DHT22;8141;52.664;5.074;2023-04-24T08:57:27;20.70;55.70
16074;DHT22;8141;52.664;5.074;2023-04-24T08:59:54;20.60;55.60
16074;DHT22;8141;52.664;5.074;2023-04-24T09:02:22;20.70;55.70
16074;DHT22;8141;52.664;5.074;2023-04-24T09:04:48;20.70;55.80
16074;DHT22;8141;52.664;5.074;2023-04-24T09:07:16;20.70;56.00
16074;DHT22;8141;52.664;5.074;2023-04-24T09:09:43;20.60;55.80
16074;DHT22;8141;52.664;5.074;2023-04-24T09:12:09;20.60;55.80
16074;DHT22;8141;52.664;5.074;2023-04-24T09:14:36;20.60;55.90
16074;DHT22;8141;52.664;5.074;2023-04-24T09:17:06;20.60;55.80
16074;DHT22;8141;52.664;5.074;2023-04-24T09:19:32;20.70;55.90
16074;DHT22;8141;52.664;5.074;2023-04-24T09:21:57;20.70;56.00
16074;DHT22;8141;52.664;5.074;2023-04-24T09:24:23;20.60;56.00
16074;DHT22;8141;52.664;5.074;2023-04-24T09:26:56;20.60;56.20
16074;DHT22;8141;52.664;5.074;2023-04-24T09:29:24;20.60;56.00
16074;DHT22;8141;52.664;5.074;2023-04-24T09:31:50;20.60;56.00
16074;DHT22;8141;52.664;5.074;2023-04-24T09:34:25;20.70;56.10
16074;DHT22;8141;52.664;5.074;2023-04-24T09:36:51;20.70;56.20
16074;DHT22;8141;52.664;5.074;2023-04-24T09:39:18;20.70;56.10
16074;DHT22;8141;52.664;5.074;2023-04-24T09:41:56;20.70;56.10
16074;DHT22;8141;52.664;5.074;2023-04-24T09:44:24;20.70;56.20
16074;DHT22;8141;52.664;5.074;2023-04-24T09:46:56;20.70;56.10
16074;DHT22;8141;52.664;5.074;2023-04-24T09:49:27;20.70;56.20
16074;DHT22;8141;52.664;5.074;2023-04-24T09:52:10;20.70;56.10
16074;DHT22;8141;52.664;5.074;2023-04-24T09:54:37;20.70;56.20
16074;DHT22;8141;52.664;5.074;2023-04-24T09:57:04;20.70;56.20
16074;DHT22;8141;52.664;5.074;2023-04-24T09:59:30;20.70;56.20
16074;DHT22;8141;52.664;5.074;2023-04-24T10:01:56;20.70;56.10
16074;DHT22;8141;52.664;5.074;2023-04-24T10:04:28;20.70;56.20
16074;DHT22;8141;52.664;5.074;2023-04-24T10:06:55;20.70;56.20
16074;DHT22;8141;52.664;5.074;2023-04-24T10:09:26;20.70;56.10
16074;DHT22;8141;52.664;5.074;2023-04-24T10:11:54;20.70;56.80
16074;DHT22;8141;52.664;5.074;2023-04-24T10:14:22;20.80;56.20
16074;DHT22;8141;52.664;5.074;2023-04-24T10:16:50;20.80;56.20
16074;DHT22;8141;52.664;5.074;2023-04-24T10:19:19;20.80;56.20
16074;DHT22;8141;52.664;5.074;2023-04-24T10:21:45;20.80;56.10
16074;DHT22;8141;52.664;5.074;2023-04-24T10:24:16;20.80;56.20
16074;DHT22;8141;52.664;5.074;2023-04-24T10:26:45;20.80;56.20
16074;DHT22;8141;52.664;5.074;2023-04-24T10:29:12;20.80;56.20
16074;DHT22;8141;52.664;5.074;2023-04-24T10:31:40;20.80;56.20
16074;DHT22;8141;52.664;5.074;2023-04-24T10:34:08;20.80;56.20
16074;DHT22;8141;52.664;5.074;2023-04-24T10:36:35;20.80;56.20
16074;DHT22;8141;52.664;5.074;2023-04-24T10:39:09;20.80;56.20
16074;DHT22;8141;52.664;5.074;2023-04-24T10:41:37;20.90;56.30
16074;DHT22;8141;52.664;5.074;2023-04-24T10:44:08;20.80;56.20
16074;DHT22;8141;52.664;5.074;2023-04-24T10:46:38;20.80;56.10
16074;DHT22;8141;52.664;5.074;2023-04-24T10:49:08;20.80;56.10
16074;DHT22;8141;52.664;5.074;2023-04-24T10:52:03;20.90;56.20
16074;DHT22;8141;52.664;5.074;2023-04-24T10:54:46;20.90;56.10
16074;DHT22;8141;52.664;5.074;2023-04-24T11:00:09;20.90;56.10
16074;DHT22;8141;52.664;5.074;2023-04-24T11:02:40;20.90;56.10
16074;DHT22;8141;52.664;5.074;2023-04-24T11:05:09;20.90;56.10
16074;DHT22;8141;52.664;5.074;2023-04-24T11:10:44;20.90;56.20
16074;DHT22;8141;52.664;5.074;2023-04-24T11:13:14;20.90;56.10
16074;DHT22;8141;52.664;5.074;2023-04-24T11:15:42;20.90;56.60
16074;DHT22;8141;52.664;5.074;2023-04-24T11:18:16;20.90;56.10
16074;DHT22;8141;52.664;5.074;2023-04-24T11:20:43;21.00;56.00
16074;DHT22;8141;52.664;5.074;2023-04-24T11:23:12;21.00;56.00
16074;DHT22;8141;52.664;5.074;2023-04-24T11:25:38;21.00;56.00
16074;DHT22;8141;52.664;5.074;2023-04-24T11:28:04;21.00;55.90
16074;DHT22;8141;52.664;5.074;2023-04-24T11:30:32;21.00;55.90
16074;DHT22;8141;52.664;5.074;2023-04-24T11:33:05;21.00;55.90
16074;DHT22;8141;52.664;5.074;2023-04-24T11:35:36;21.00;55.90
16074;DHT22;8141;52.664;5.074;2023-04-24T11:38:06;21.00;55.90
16074;DHT22;8141;52.664;5.074;2023-04-24T11:40:32;21.00;55.80
16074;DHT22;8141;52.664;5.074;2023-04-24T11:43:00;21.00;55.80
16074;DHT22;8141;52.664;5.074;2023-04-24T11:45:29;21.10;55.80
16074;DHT22;8141;52.664;5.074;2023-04-24T11:47:56;21.10;55.80
16074;DHT22;8141;52.664;5.074;2023-04-24T11:50:24;21.10;55.80
16074;DHT22;8141;52.664;5.074;2023-04-24T11:52:51;21.00;55.70
16074;DHT22;8141;52.664;5.074;2023-04-24T11:57:48;21.10;55.70
16074;DHT22;8141;52.664;5.074;2023-04-24T12:02:50;21.10;55.60
16074;DHT22;8141;52.664;5.074;2023-04-24T12:05:20;21.10;55.60
16074;DHT22;8141;52.664;5.074;2023-04-24T12:07:51;21.10;55.60
16074;DHT22;8141;52.664;5.074;2023-04-24T12:10:22;21.10;55.60
16074;DHT22;8141;52.664;5.074;2023-04-24T12:12:50;21.20;55.60
16074;DHT22;8141;52.664;5.074;2023-04-24T12:15:18;21.10;55.50
16074;DHT22;8141;52.664;5.074;2023-04-24T12:17:45;21.20;55.60
16074;DHT22;8141;52.664;5.074;2023-04-24T12:20:11;21.20;55.60
16074;DHT22;8141;52.664;5.074;2023-04-24T12:22:56;21.20;55.50
16074;DHT22;8141;52.664;5.074;2023-04-24T12:25:31;21.20;55.50
16074;DHT22;8141;52.664;5.074;2023-04-24T12:30:30;21.20;55.40
16074;DHT22;8141;52.664;5.074;2023-04-24T12:32:58;21.20;55.40
16074;DHT22;8141;52.664;5.074;2023-04-24T12:35:28;21.20;55.40
16074;DHT22;8141;52.664;5.074;2023-04-24T12:37:55;21.20;55.40
16074;DHT22;8141;52.664;5.074;2023-04-24T12:40:21;21.20;55.40
16074;DHT22;8141;52.664;5.074;2023-04-24T12:42:51;21.20;55.30
16074;DHT22;8141;52.664;5.074;2023-04-24T12:45:18;21.20;55.30
16074;DHT22;8141;52.664;5.074;2023-04-24T12:47:45;21.20;55.30
16074;DHT22;8141;52.664;5.074;2023-04-24T12:50:15;21.30;55.30
16074;DHT22;8141;52.664;5.074;2023-04-24T12:52:42;21.30;55.30
16074;DHT22;8141;52.664;5.074;2023-04-24T12:55:09;21.30;55.30
16074;DHT22;8141;52.664;5.074;2023-04-24T12:57:37;21.30;55.20
16074;DHT22;8141;52.664;5.074;2023-04-24T13:00:04;21.30;55.10
16074;DHT22;8141;52.664;5.074;2023-04-24T13:02:31;21.30;55.10
16074;DHT22;8141;52.664;5.074;2023-04-24T13:04:58;21.30;55.10
16074;DHT22;8141;52.664;5.074;2023-04-24T13:07:24;21.30;55.10
16074;DHT22;8141;52.664;5.074;2023-04-24T13:09:51;21.30;55.00
16074;DHT22;8141;52.664;5.074;2023-04-24T13:12:17;21.30;54.90
16074;DHT22;8141;52.664;5.074;2023-04-24T13:14:43;21.30;54.90
16074;DHT22;8141;52.664;5.074;2023-04-24T13:17:09;21.40;54.90
16074;DHT22;8141;52.664;5.074;2023-04-24T13:19:38;21.30;54.80
16074;DHT22;8141;52.664;5.074;2023-04-24T13:22:09;21.30;54.80
16074;DHT22;8141;52.664;5.074;2023-04-24T13:24:36;21.40;54.90
16074;DHT22;8141;52.664;5.074;2023-04-24T13:27:03;21.40;54.80
16074;DHT22;8141;52.664;5.074;2023-04-24T13:29:29;21.40;54.80
16074;DHT22;8141;52.664;5.074;2023-04-24T13:31:56;21.40;54.80
16074;DHT22;8141;52.664;5.074;2023-04-24T13:34:25;21.40;54.70
16074;DHT22;8141;52.664;5.074;2023-04-24T13:36:53;21.40;55.30
16074;DHT22;8141;52.664;5.074;2023-04-24T13:39:20;21.40;54.60
16074;DHT22;8141;52.664;5.074;2023-04-24T13:41:47;21.40;54.60
16074;DHT22;8141;52.664;5.074;2023-04-24T13:44:14;21.40;54.50
16074;DHT22;8141;52.664;5.074;2023-04-24T13:46:41;21.40;54.50
16074;DHT22;8141;52.664;5.074;2023-04-24T13:49:08;21.40;54.50
16074;DHT22;8141;52.664;5.074;2023-04-24T13:51:34;21.40;54.50
16074;DHT22;8141;52.664;5.074;2023-04-24T13:54:00;21.40;54.50
16074;DHT22;8141;52.664;5.074;2023-04-24T13:56:26;21.40;54.50
16074;DHT22;8141;52.664;5.074;2023-04-24T13:58:52;21.40;54.40
16074;DHT22;8141;52.664;5.074;2023-04-24T14:01:19;21.50;54.40
16074;DHT22;8141;52.664;5.074;2023-04-24T14:03:46;21.50;54.40
16074;DHT22;8141;52.664;5.074;2023-04-24T14:06:12;21.50;55.00
16074;DHT22;8141;52.664;5.074;2023-04-24T14:08:38;21.40;54.30
16074;DHT22;8141;52.664;5.074;2023-04-24T14:11:04;21.50;54.40
16074;DHT22;8141;52.664;5.074;2023-04-24T14:13:29;21.50;54.40
16074;DHT22;8141;52.664;5.074;2023-04-24T14:15:55;21.50;54.40
16074;DHT22;8141;52.664;5.074;2023-04-24T14:18:21;21.50;54.40
16074;DHT22;8141;52.664;5.074;2023-04-24T14:20:47;21.50;54.40
16074;DHT22;8141;52.664;5.074;2023-04-24T14:23:12;21.50;54.40
16074;DHT22;8141;52.664;5.074;2023-04-24T14:25:38;21.50;54.30
16074;DHT22;8141;52.664;5.074;2023-04-24T14:28:05;21.50;54.30
16074;DHT22;8141;52.664;5.074;2023-04-24T14:30:31;21.50;54.30
16074;DHT22;8141;52.664;5.074;2023-04-24T14:32:57;21.50;54.40
16074;DHT22;8141;52.664;5.074;2023-04-24T14:35:23;21.50;54.40
16074;DHT22;8141;52.664;5.074;2023-04-24T14:37:49;21.50;54.40
16074;DHT22;8141;52.664;5.074;2023-04-24T14:40:15;21.50;54.40
16074;DHT22;8141;52.664;5.074;2023-04-24T14:42:41;21.60;54.40
16074;DHT22;8141;52.664;5.074;2023-04-24T14:45:07;21.50;54.40
16074;DHT22;8141;52.664;5.074;2023-04-24T14:47:33;21.60;54.50
16074;DHT22;8141;52.664;5.074;2023-04-24T14:50:00;21.60;54.50
16074;DHT22;8141;52.664;5.074;2023-04-24T14:52:26;21.60;54.50
16074;DHT22;8141;52.664;5.074;2023-04-24T14:54:52;21.60;54.50
16074;DHT22;8141;52.664;5.074;2023-04-24T14:57:17;21.60;54.40
16074;DHT22;8141;52.664;5.074;2023-04-24T14:59:43;21.60;54.50
16074;DHT22;8141;52.664;5.074;2023-04-24T15:02:09;21.60;54.40
16074;DHT22;8141;52.664;5.074;2023-04-24T15:04:35;21.60;54.40
16074;DHT22;8141;52.664;5.074;2023-04-24T15:07:01;21.60;54.40
16074;DHT22;8141;52.664;5.074;2023-04-24T15:09:27;21.60;54.40
16074;DHT22;8141;52.664;5.074;2023-04-24T15:11:53;21.60;54.40
16074;DHT22;8141;52.664;5.074;2023-04-24T15:14:19;21.60;54.40
16074;DHT22;8141;52.664;5.074;2023-04-24T15:16:45;21.60;54.40
16074;DHT22;8141;52.664;5.074;2023-04-24T15:19:10;21.60;54.30
16074;DHT22;8141;52.664;5.074;2023-04-24T15:21:37;21.60;54.40
16074;DHT22;8141;52.664;5.074;2023-04-24T15:24:04;21.60;54.40
16074;DHT22;8141;52.664;5.074;2023-04-24T15:26:30;21.60;54.30
16074;DHT22;8141;52.664;5.074;2023-04-24T15:28:56;21.60;54.30
16074;DHT22;8141;52.664;5.074;2023-04-24T15:31:21;21.60;54.20
16074;DHT22;8141;52.664;5.074;2023-04-24T15:33:51;21.60;54.20
16074;DHT22;8141;52.664;5.074;2023-04-24T15:36:18;21.70;54.30
16074;DHT22;8141;52.664;5.074;2023-04-24T15:38:44;21.70;54.30
16074;DHT22;8141;52.664;5.074;2023-04-24T15:41:11;21.70;54.20
16074;DHT22;8141;52.664;5.074;2023-04-24T15:43:37;21.60;54.20
16074;DHT22;8141;52.664;5.074;2023-04-24T15:46:04;21.70;54.20
16074;DHT22;8141;52.664;5.074;2023-04-24T15:48:31;21.70;54.20
16074;DHT22;8141;52.664;5.074;2023-04-24T15:50:57;21.70;54.10
16074;DHT22;8141;52.664;5.074;2023-04-24T15:53:24;21.70;54.10
16074;DHT22;8141;52.664;5.074;2023-04-24T15:55:51;21.70;54.10